Crest Voyager — 3EBB8 — position and weather

sailwx.info

Track history (hours):
 
Tides and Currents Weather Stations Pressure Air Temp Water Temp Dewpoint Dewpoint Depression Visibility Wind Speed Wind Dir Waves Ship Positions

Crest Voyager

Last reported at 2017-Apr-26 11:29 UTC. Time now 2017-Apr-26 11:38 UTC.
Position N 37°35' E 121°23'.

Length 292 m; draft 18.3 m.

Type: Cargo ship. MMSI: 374835000.

Date/timePositionNaut miles runAvg speedWind from/ knotsBaromVisibWave heightAir tempDewpointWater temp
2017-Apr-26 11:29N 37°35' E 121°23'0 0.0
2017-Apr-26 10:47N 37°35' E 121°23'0 0.0
2017-Apr-26 10:20N 37°35' E 121°23'0 0.0
2017-Apr-26 09:59N 37°35' E 121°23'0 0.0
2017-Apr-26 09:29N 37°35' E 121°23'0 0.0
2017-Apr-26 08:56N 37°35' E 121°23'0 0.0
2017-Apr-26 08:29N 37°35' E 121°23'0 0.0
2017-Apr-26 07:59N 37°35' E 121°23'0 0.0
2017-Apr-26 07:24N 37°35' E 121°23'0 0.0
2017-Apr-26 06:54N 37°35' E 121°23'0 0.0
2017-Apr-26 06:29N 37°35' E 121°23'0 0.0
2017-Apr-26 05:59N 37°35' E 121°23'0 0.0
2017-Apr-26 05:23N 37°35' E 121°23'0 0.0
2017-Apr-26 04:59N 37°35' E 121°23'0 0.0
2017-Apr-26 04:29N 37°35' E 121°23'0 0.0
2017-Apr-26 03:59N 37°35' E 121°23'0 0.0
2017-Apr-26 03:29N 37°35' E 121°23'0 0.0
2017-Apr-26 02:59N 37°35' E 121°23'0 0.0
2017-Apr-26 02:27N 37°35' E 121°23'0 0.1
2017-Apr-26 02:01N 37°35' E 121°23'0 0.7
2017-Apr-26 01:31N 37°35' E 121°24'2 4.4
2017-Apr-26 01:01N 37°35' E 121°27'4 7.9
2017-Apr-26 00:30N 37°39' E 121°28'3 6.5
2017-Apr-26 00:00N 37°42' E 121°30'3 5.7
2017-Apr-25 23:31N 37°44' E 121°32'510.1
2017-Apr-25 23:01N 37°48' E 121°36'3 6.0
2017-Apr-25 22:31N 37°50' E 121°39'0 0.5
2017-Apr-25 21:56N 37°50' E 121°39'0 0.0
2017-Apr-25 21:29N 37°50' E 121°39'0 0.0
2017-Apr-25 20:59N 37°50' E 121°39'0 0.0
2017-Apr-25 20:26N 37°50' E 121°39'0 0.0
2017-Apr-25 19:59N 37°50' E 121°39'0 0.0
2017-Apr-25 19:29N 37°50' E 121°39'0 0.0
2017-Apr-25 18:56N 37°50' E 121°39'0 0.0
2017-Apr-25 18:26N 37°50' E 121°39'0 0.0
2017-Apr-25 17:53N 37°50' E 121°39'0 0.0
2017-Apr-25 17:29N 37°50' E 121°39'0 0.3
2017-Apr-25 16:56N 37°50' E 121°39'0 0.2
2017-Apr-25 16:26N 37°50' E 121°39'0 0.1
2017-Apr-25 15:59N 37°50' E 121°39'0 0.0
2017-Apr-25 15:17N 37°50' E 121°39'0 0.0
2017-Apr-25 14:59N 37°50' E 121°39'0 0.0
2017-Apr-25 13:50N 37°50' E 121°39'0 0.0
2017-Apr-25 13:29N 37°50' E 121°39'0 0.1
2017-Apr-25 12:59N 37°50' E 121°39'0 0.2
2017-Apr-25 12:29N 37°50' E 121°39'0 1.0
2017-Apr-25 12:00N 37°50' E 121°40'2 4.6
2017-Apr-25 11:30N 37°51' E 121°43'4 7.7
2017-Apr-25 11:00N 37°51' E 121°47'4 8.6
2017-Apr-25 10:30N 37°52' E 121°53'510.1
2017-Apr-25 10:00N 37°52' E 121°59'510.2
2017-Apr-25 09:30N 37°51' E 122°05'510.0
2017-Apr-25 09:00N 37°51' E 122°12'510.6
2017-Apr-25 08:30N 37°50' E 122°18'510.5
2017-Apr-25 08:00N 37°50' E 122°25'510.4
2017-Apr-25 07:30N 37°49' E 122°31'510.4
2017-Apr-25 07:00N 37°48' E 122°38'610.1
2017-Apr-25 06:28N 37°47' E 122°45'510.1
2017-Apr-25 06:00N 37°44' E 122°50'6 9.7
2017-Apr-25 05:26N 37°41' E 122°56'4 9.3
2017-Apr-25 04:58N 37°39' E 123°00'5 9.4
2017-Apr-25 04:23N 37°36' E 123°06'4 9.2
2017-Apr-25 04:00N 37°34' E 123°10'  
Track history (hours):
 
Tides and Currents Weather Stations Pressure Air Temp Water Temp Dewpoint Dewpoint Depression Visibility Wind Speed Wind Dir Waves Ship Positions

Crest Voyager

Last reported at 2017-Apr-26 11:29 UTC. Time now 2017-Apr-26 11:38 UTC.
Position N 37°35' E 121°23'.

Length 292 m; draft 18.3 m.

Type: Cargo ship. MMSI: 374835000.

Date/timePositionNaut miles runAvg speedWind from/ knotsBaromVisibWave heightAir tempDewpointWater temp
2017-Apr-26 11:29N 37°35' E 121°23'0 0.0
2017-Apr-26 10:47N 37°35' E 121°23'0 0.0
2017-Apr-26 10:20N 37°35' E 121°23'0 0.0
2017-Apr-26 09:59N 37°35' E 121°23'0 0.0
2017-Apr-26 09:29N 37°35' E 121°23'0 0.0
2017-Apr-26 08:56N 37°35' E 121°23'0 0.0
2017-Apr-26 08:29N 37°35' E 121°23'0 0.0
2017-Apr-26 07:59N 37°35' E 121°23'0 0.0
2017-Apr-26 07:24N 37°35' E 121°23'0 0.0
2017-Apr-26 06:54N 37°35' E 121°23'0 0.0
2017-Apr-26 06:29N 37°35' E 121°23'0 0.0
2017-Apr-26 05:59N 37°35' E 121°23'0 0.0
2017-Apr-26 05:23N 37°35' E 121°23'0 0.0
2017-Apr-26 04:59N 37°35' E 121°23'0 0.0
2017-Apr-26 04:29N 37°35' E 121°23'0 0.0
2017-Apr-26 03:59N 37°35' E 121°23'0 0.0
2017-Apr-26 03:29N 37°35' E 121°23'0 0.0
2017-Apr-26 02:59N 37°35' E 121°23'0 0.0
2017-Apr-26 02:27N 37°35' E 121°23'0 0.1
2017-Apr-26 02:01N 37°35' E 121°23'0 0.7
2017-Apr-26 01:31N 37°35' E 121°24'2 4.4
2017-Apr-26 01:01N 37°35' E 121°27'4 7.9
2017-Apr-26 00:30N 37°39' E 121°28'3 6.5
2017-Apr-26 00:00N 37°42' E 121°30'3 5.7
2017-Apr-25 23:31N 37°44' E 121°32'510.1
2017-Apr-25 23:01N 37°48' E 121°36'3 6.0
2017-Apr-25 22:31N 37°50' E 121°39'0 0.5
2017-Apr-25 21:56N 37°50' E 121°39'0 0.0
2017-Apr-25 21:29N 37°50' E 121°39'0 0.0
2017-Apr-25 20:59N 37°50' E 121°39'0 0.0
2017-Apr-25 20:26N 37°50' E 121°39'0 0.0
2017-Apr-25 19:59N 37°50' E 121°39'0 0.0
2017-Apr-25 19:29N 37°50' E 121°39'0 0.0
2017-Apr-25 18:56N 37°50' E 121°39'0 0.0
2017-Apr-25 18:26N 37°50' E 121°39'0 0.0
2017-Apr-25 17:53N 37°50' E 121°39'0 0.0
2017-Apr-25 17:29N 37°50' E 121°39'0 0.3
2017-Apr-25 16:56N 37°50' E 121°39'0 0.2
2017-Apr-25 16:26N 37°50' E 121°39'0 0.1
2017-Apr-25 15:59N 37°50' E 121°39'0 0.0
2017-Apr-25 15:17N 37°50' E 121°39'0 0.0
2017-Apr-25 14:59N 37°50' E 121°39'0 0.0
2017-Apr-25 13:50N 37°50' E 121°39'0 0.0
2017-Apr-25 13:29N 37°50' E 121°39'0 0.1
2017-Apr-25 12:59N 37°50' E 121°39'0 0.2
2017-Apr-25 12:29N 37°50' E 121°39'0 1.0
2017-Apr-25 12:00N 37°50' E 121°40'2 4.6
2017-Apr-25 11:30N 37°51' E 121°43'4 7.7
2017-Apr-25 11:00N 37°51' E 121°47'4 8.6
2017-Apr-25 10:30N 37°52' E 121°53'510.1
2017-Apr-25 10:00N 37°52' E 121°59'510.2
2017-Apr-25 09:30N 37°51' E 122°05'510.0
2017-Apr-25 09:00N 37°51' E 122°12'510.6
2017-Apr-25 08:30N 37°50' E 122°18'510.5
2017-Apr-25 08:00N 37°50' E 122°25'510.4
2017-Apr-25 07:30N 37°49' E 122°31'510.4
2017-Apr-25 07:00N 37°48' E 122°38'610.1
2017-Apr-25 06:28N 37°47' E 122°45'510.1
2017-Apr-25 06:00N 37°44' E 122°50'6 9.7
2017-Apr-25 05:26N 37°41' E 122°56'4 9.3
2017-Apr-25 04:58N 37°39' E 123°00'5 9.4
2017-Apr-25 04:23N 37°36' E 123°06'4 9.2
2017-Apr-25 04:00N 37°34' E 123°10'  

Dump ship's entire track history